sensor_id;sensor_type;location;lat;lon;timestamp;pressure;altitude;pressure_sealevel;temperature;humidity
46045;BME280;31781;54.094;13.428;2022-08-01T00:01:56;101305.72;;;21.29;55.90
46045;BME280;31781;54.094;13.428;2022-08-01T00:07:04;101300.19;;;21.29;56.02
46045;BME280;31781;54.094;13.428;2022-08-01T00:12:07;101292.16;;;21.27;54.64
46045;BME280;31781;54.094;13.428;2022-08-01T00:17:10;101300.44;;;21.22;56.17
46045;BME280;31781;54.094;13.428;2022-08-01T00:22:18;101289.91;;;21.19;56.41
46045;BME280;31781;54.094;13.428;2022-08-01T00:27:21;101291.81;;;21.19;55.67
46045;BME280;31781;54.094;13.428;2022-08-01T00:32:24;101281.84;;;21.18;55.83
46045;BME280;31781;54.094;13.428;2022-08-01T00:37:32;101278.00;;;21.19;56.17
46045;BME280;31781;54.094;13.428;2022-08-01T00:42:51;101271.97;;;21.27;53.83
46045;BME280;31781;54.094;13.428;2022-08-01T00:53:13;101272.78;;;21.27;54.94
46045;BME280;31781;54.094;13.428;2022-08-01T00:58:19;101260.28;;;21.20;55.98
46045;BME280;31781;54.094;13.428;2022-08-01T01:03:24;101267.19;;;21.17;59.07
46045;BME280;31781;54.094;13.428;2022-08-01T01:08:58;101267.72;;;21.14;58.23
46045;BME280;31781;54.094;13.428;2022-08-01T01:14:08;101262.16;;;21.14;56.62
46045;BME280;31781;54.094;13.428;2022-08-01T01:19:16;101266.31;;;21.12;56.87
46045;BME280;31781;54.094;13.428;2022-08-01T01:24:37;101255.75;;;21.09;56.25
46045;BME280;31781;54.094;13.428;2022-08-01T01:29:51;101247.72;;;21.07;54.81
46045;BME280;31781;54.094;13.428;2022-08-01T01:35:04;101258.47;;;21.04;55.07
46045;BME280;31781;54.094;13.428;2022-08-01T01:40:09;101252.62;;;21.00;58.05
46045;BME280;31781;54.094;13.428;2022-08-01T01:45:19;101253.19;;;20.97;59.11
46045;BME280;31781;54.094;13.428;2022-08-01T01:55:41;101246.25;;;20.95;56.57
46045;BME280;31781;54.094;13.428;2022-08-01T02:00:52;101239.72;;;20.74;61.73
46045;BME280;31781;54.094;13.428;2022-08-01T02:05:56;101244.03;;;20.97;61.93
46045;BME280;31781;54.094;13.428;2022-08-01T02:11:05;101233.75;;;20.92;60.64
46045;BME280;31781;54.094;13.428;2022-08-01T02:16:09;101223.78;;;20.86;58.96
46045;BME280;31781;54.094;13.428;2022-08-01T02:21:16;101222.03;;;20.75;60.88
46045;BME280;31781;54.094;13.428;2022-08-01T02:26:28;101221.97;;;20.70;59.97
46045;BME280;31781;54.094;13.428;2022-08-01T02:31:32;101212.28;;;20.67;59.56
46045;BME280;31781;54.094;13.428;2022-08-01T02:36:38;101197.84;;;20.60;62.30
46045;BME280;31781;54.094;13.428;2022-08-01T02:41:48;101187.81;;;20.49;62.90
46045;BME280;31781;54.094;13.428;2022-08-01T02:46:54;101185.53;;;20.41;60.98
46045;BME280;31781;54.094;13.428;2022-08-01T02:52:00;101185.50;;;20.36;62.95
46045;BME280;31781;54.094;13.428;2022-08-01T02:57:10;101187.13;;;20.32;63.50
46045;BME280;31781;54.094;13.428;2022-08-01T03:02:16;101186.28;;;20.31;61.58
46045;BME280;31781;54.094;13.428;2022-08-01T03:07:20;101202.28;;;20.29;64.99
46045;BME280;31781;54.094;13.428;2022-08-01T03:12:33;101204.69;;;20.26;65.01
46045;BME280;31781;54.094;13.428;2022-08-01T03:17:37;101208.00;;;20.23;62.81
46045;BME280;31781;54.094;13.428;2022-08-01T03:22:42;101212.06;;;20.15;65.62
46045;BME280;31781;54.094;13.428;2022-08-01T03:27:54;101213.13;;;20.09;65.27
46045;BME280;31781;54.094;13.428;2022-08-01T03:32:57;101220.25;;;20.05;63.51
46045;BME280;31781;54.094;13.428;2022-08-01T03:38:02;101222.38;;;19.98;65.46
46045;BME280;31781;54.094;13.428;2022-08-01T03:43:32;101218.47;;;19.94;65.03
46045;BME280;31781;54.094;13.428;2022-08-01T03:53:59;101212.94;;;19.94;62.12
46045;BME280;31781;54.094;13.428;2022-08-01T03:59:03;101216.16;;;19.86;62.48
46045;BME280;31781;54.094;13.428;2022-08-01T04:04:06;101219.19;;;19.84;65.35
46045;BME280;31781;54.094;13.428;2022-08-01T04:09:14;101221.13;;;19.84;65.06
46045;BME280;31781;54.094;13.428;2022-08-01T04:14:17;101218.94;;;19.86;63.53
46045;BME280;31781;54.094;13.428;2022-08-01T04:19:20;101218.38;;;19.84;65.54
46045;BME280;31781;54.094;13.428;2022-08-01T04:24:29;101213.09;;;19.82;65.20
46045;BME280;31781;54.094;13.428;2022-08-01T04:29:36;101219.19;;;19.84;63.17
46045;BME280;31781;54.094;13.428;2022-08-01T04:34:41;101218.62;;;19.82;64.91
46045;BME280;31781;54.094;13.428;2022-08-01T04:39:50;101217.53;;;19.83;64.95
46045;BME280;31781;54.094;13.428;2022-08-01T04:44:54;101221.69;;;19.86;63.19
46045;BME280;31781;54.094;13.428;2022-08-01T04:49:57;101219.53;;;19.88;65.76
46045;BME280;31781;54.094;13.428;2022-08-01T04:55:06;101217.31;;;19.90;65.45
46045;BME280;31781;54.094;13.428;2022-08-01T05:00:10;101218.47;;;19.94;63.55
46045;BME280;31781;54.094;13.428;2022-08-01T05:10:31;101225.25;;;20.08;62.57
46045;BME280;31781;54.094;13.428;2022-08-01T05:15:34;101230.72;;;20.03;63.38
46045;BME280;31781;54.094;13.428;2022-08-01T05:20:37;101236.53;;;20.07;65.50
46045;BME280;31781;54.094;13.428;2022-08-01T05:25:56;101235.56;;;20.18;62.40
46045;BME280;31781;54.094;13.428;2022-08-01T05:36:18;101240.06;;;20.24;62.63
46045;BME280;31781;54.094;13.428;2022-08-01T05:41:20;101245.84;;;20.22;63.50
46045;BME280;31781;54.094;13.428;2022-08-01T05:46:39;101250.41;;;20.33;62.74
46045;BME280;31781;54.094;13.428;2022-08-01T05:51:42;101260.06;;;20.31;63.66
46045;BME280;31781;54.094;13.428;2022-08-01T05:56:45;101257.31;;;20.31;64.87
46045;BME280;31781;54.094;13.428;2022-08-01T06:01:53;101255.09;;;20.33;64.58
46045;BME280;31781;54.094;13.428;2022-08-01T06:06:57;101259.84;;;20.37;63.41
46045;BME280;31781;54.094;13.428;2022-08-01T06:12:00;101255.22;;;20.43;64.83
46045;BME280;31781;54.094;13.428;2022-08-01T06:17:08;101268.84;;;20.55;64.23
46045;BME280;31781;54.094;13.428;2022-08-01T06:22:11;101264.28;;;20.65;62.42
46045;BME280;31781;54.094;13.428;2022-08-01T06:27:14;101264.34;;;20.75;63.69
46045;BME280;31781;54.094;13.428;2022-08-01T06:32:28;101269.72;;;20.87;63.39
46045;BME280;31781;54.094;13.428;2022-08-01T06:37:32;101275.34;;;21.02;61.33
46045;BME280;31781;54.094;13.428;2022-08-01T06:42:35;101269.38;;;21.15;62.50
46045;BME280;31781;54.094;13.428;2022-08-01T06:47:44;101268.41;;;21.31;62.13
46045;BME280;31781;54.094;13.428;2022-08-01T06:52:51;101279.84;;;21.50;60.71
46045;BME280;31781;54.094;13.428;2022-08-01T06:57:54;101275.22;;;21.66;61.34
46045;BME280;31781;54.094;13.428;2022-08-01T07:03:02;101281.94;;;21.80;60.95
46045;BME280;31781;54.094;13.428;2022-08-01T07:08:05;101272.06;;;21.94;59.57
46045;BME280;31781;54.094;13.428;2022-08-01T07:13:07;101271.53;;;22.07;60.31
46045;BME280;31781;54.094;13.428;2022-08-01T07:18:15;101278.78;;;22.23;59.90
46045;BME280;31781;54.094;13.428;2022-08-01T07:23:18;101279.66;;;22.39;59.34
46045;BME280;31781;54.094;13.428;2022-08-01T07:28:38;101273.03;;;22.60;58.40
46045;BME280;31781;54.094;13.428;2022-08-01T07:33:44;101281.66;;;22.69;58.19
46045;BME280;31781;54.094;13.428;2022-08-01T07:38:49;101275.84;;;22.86;58.63
46045;BME280;31781;54.094;13.428;2022-08-01T07:43:57;101275.81;;;23.11;58.16
46045;BME280;31781;54.094;13.428;2022-08-01T07:49:05;101281.59;;;23.40;56.99
46045;BME280;31781;54.094;13.428;2022-08-01T07:54:08;101273.50;;;23.68;56.92
46045;BME280;31781;54.094;13.428;2022-08-01T07:59:16;101269.78;;;23.93;55.17
46045;BME280;31781;54.094;13.428;2022-08-01T08:04:27;101266.31;;;24.21;54.62
46045;BME280;31781;54.094;13.428;2022-08-01T08:09:30;101266.47;;;24.45;53.53
46045;BME280;31781;54.094;13.428;2022-08-01T08:19:56;101274.19;;;24.92;53.25
46045;BME280;31781;54.094;13.428;2022-08-01T08:24:58;101274.53;;;24.86;53.04
46045;BME280;31781;54.094;13.428;2022-08-01T08:30:02;101275.56;;;25.24;50.91
46045;BME280;31781;54.094;13.428;2022-08-01T08:35:11;101283.81;;;25.34;49.31
46045;BME280;31781;54.094;13.428;2022-08-01T08:40:22;101284.59;;;25.39;50.42
46045;BME280;31781;54.094;13.428;2022-08-01T08:45:29;101286.44;;;25.49;51.34
46045;BME280;31781;54.094;13.428;2022-08-01T08:56:12;101293.81;;;25.87;51.09
46045;BME280;31781;54.094;13.428;2022-08-01T09:01:15;101306.59;;;25.93;50.10
46045;BME280;31781;54.094;13.428;2022-08-01T09:06:34;101310.34;;;26.02;50.27
46045;BME280;31781;54.094;13.428;2022-08-01T09:11:37;101316.34;;;25.91;50.46
46045;BME280;31781;54.094;13.428;2022-08-01T09:16:41;101327.41;;;25.77;50.88
46045;BME280;31781;54.094;13.428;2022-08-01T09:22:01;101328.94;;;25.64;51.38
46045;BME280;31781;54.094;13.428;2022-08-01T09:27:18;101339.59;;;25.57;51.38
46045;BME280;31781;54.094;13.428;2022-08-01T09:32:23;101334.84;;;25.58;51.84
46045;BME280;31781;54.094;13.428;2022-08-01T09:37:34;101339.84;;;25.61;52.20
46045;BME280;31781;54.094;13.428;2022-08-01T09:42:38;101341.16;;;25.68;51.68
46045;BME280;31781;54.094;13.428;2022-08-01T09:47:40;101344.16;;;25.72;51.89
46045;BME280;31781;54.094;13.428;2022-08-01T09:52:53;101349.69;;;25.77;52.04
46045;BME280;31781;54.094;13.428;2022-08-01T10:03:26;101346.38;;;25.99;51.54
46045;BME280;31781;54.094;13.428;2022-08-01T10:08:45;101359.72;;;26.02;51.36
46045;BME280;31781;54.094;13.428;2022-08-01T10:13:48;101358.78;;;26.11;51.51
46045;BME280;31781;54.094;13.428;2022-08-01T10:18:57;101358.16;;;26.20;51.36
46045;BME280;31781;54.094;13.428;2022-08-01T10:24:05;101370.31;;;26.29;51.31
46045;BME280;31781;54.094;13.428;2022-08-01T10:29:10;101374.16;;;26.33;50.93
46045;BME280;31781;54.094;13.428;2022-08-01T10:34:39;101374.38;;;26.36;50.47
46045;BME280;31781;54.094;13.428;2022-08-01T10:39:45;101375.22;;;26.37;50.56
46045;BME280;31781;54.094;13.428;2022-08-01T10:44:49;101381.47;;;26.29;51.09
46045;BME280;31781;54.094;13.428;2022-08-01T10:50:03;101381.53;;;26.24;50.97
46045;BME280;31781;54.094;13.428;2022-08-01T10:55:23;101386.81;;;26.25;50.38
46045;BME280;31781;54.094;13.428;2022-08-01T11:00:43;101388.56;;;26.16;50.27
46045;BME280;31781;54.094;13.428;2022-08-01T11:06:03;101398.12;;;26.10;50.36
46045;BME280;31781;54.094;13.428;2022-08-01T11:11:08;101402.50;;;25.92;50.47
46045;BME280;31781;54.094;13.428;2022-08-01T11:16:26;101419.19;;;25.68;50.77
46045;BME280;31781;54.094;13.428;2022-08-01T11:27:25;101433.72;;;24.93;51.98
46045;BME280;31781;54.094;13.428;2022-08-01T11:32:32;101451.16;;;24.44;53.21
46045;BME280;31781;54.094;13.428;2022-08-01T11:37:54;101458.50;;;24.05;55.49
46045;BME280;31781;54.094;13.428;2022-08-01T11:43:23;101466.63;;;23.76;56.13
46045;BME280;31781;54.094;13.428;2022-08-01T11:48:26;101468.28;;;23.57;55.24
46045;BME280;31781;54.094;13.428;2022-08-01T11:53:30;101472.94;;;23.36;57.27
46045;BME280;31781;54.094;13.428;2022-08-01T11:58:49;101466.00;;;23.28;55.95
46045;BME280;31781;54.094;13.428;2022-08-01T12:03:55;101468.50;;;23.15;56.97
46045;BME280;31781;54.094;13.428;2022-08-01T12:09:19;101470.97;;;23.06;57.44
46045;BME280;31781;54.094;13.428;2022-08-01T12:14:27;101469.31;;;23.05;57.02
46045;BME280;31781;54.094;13.428;2022-08-01T12:19:32;101482.62;;;23.03;58.34
46045;BME280;31781;54.094;13.428;2022-08-01T12:24:35;101478.19;;;23.07;59.61
46045;BME280;31781;54.094;13.428;2022-08-01T12:29:43;101473.22;;;23.09;59.80
46045;BME280;31781;54.094;13.428;2022-08-01T12:35:04;101479.06;;;23.23;57.48
46045;BME280;31781;54.094;13.428;2022-08-01T12:40:13;101481.25;;;23.21;58.11
46045;BME280;31781;54.094;13.428;2022-08-01T12:45:18;101477.66;;;23.25;58.39
46045;BME280;31781;54.094;13.428;2022-08-01T12:50:29;101481.00;;;23.27;59.33
46045;BME280;31781;54.094;13.428;2022-08-01T12:55:32;101491.81;;;23.29;57.63
46045;BME280;31781;54.094;13.428;2022-08-01T13:00:36;101486.56;;;23.27;58.75
46045;BME280;31781;54.094;13.428;2022-08-01T13:05:49;101492.09;;;23.22;58.01
46045;BME280;31781;54.094;13.428;2022-08-01T13:11:00;101500.16;;;23.19;56.92
46045;BME280;31781;54.094;13.428;2022-08-01T13:16:05;101509.00;;;23.11;58.55
46045;BME280;31781;54.094;13.428;2022-08-01T13:21:16;101511.19;;;22.99;59.33
46045;BME280;31781;54.094;13.428;2022-08-01T13:26:37;101507.53;;;22.88;58.50
46045;BME280;31781;54.094;13.428;2022-08-01T13:31:40;101518.06;;;22.81;57.86
46045;BME280;31781;54.094;13.428;2022-08-01T13:36:49;101517.78;;;22.72;60.38
46045;BME280;31781;54.094;13.428;2022-08-01T13:41:52;101519.41;;;22.68;58.85
46045;BME280;31781;54.094;13.428;2022-08-01T13:46:55;101531.31;;;22.69;58.78
46045;BME280;31781;54.094;13.428;2022-08-01T13:52:03;101527.44;;;22.70;58.04
46045;BME280;31781;54.094;13.428;2022-08-01T13:57:06;101537.47;;;22.71;56.83
46045;BME280;31781;54.094;13.428;2022-08-01T14:02:09;101543.78;;;22.66;56.35
46045;BME280;31781;54.094;13.428;2022-08-01T14:07:17;101546.53;;;22.61;56.72
46045;BME280;31781;54.094;13.428;2022-08-01T14:12:21;101544.28;;;22.58;56.62
46045;BME280;31781;54.094;13.428;2022-08-01T14:17:24;101556.50;;;22.57;57.35
46045;BME280;31781;54.094;13.428;2022-08-01T14:22:34;101554.88;;;22.61;57.40
46045;BME280;31781;54.094;13.428;2022-08-01T14:32:56;101565.53;;;22.79;56.54
46045;BME280;31781;54.094;13.428;2022-08-01T14:37:59;101568.81;;;22.76;56.19
46045;BME280;31781;54.094;13.428;2022-08-01T14:43:04;101576.03;;;22.77;56.34
46045;BME280;31781;54.094;13.428;2022-08-01T14:48:28;101577.44;;;22.80;55.86
46045;BME280;31781;54.094;13.428;2022-08-01T14:53:31;101581.34;;;22.84;55.14
46045;BME280;31781;54.094;13.428;2022-08-01T14:58:36;101577.22;;;22.87;55.00
46045;BME280;31781;54.094;13.428;2022-08-01T15:03:44;101581.38;;;22.89;55.25
46045;BME280;31781;54.094;13.428;2022-08-01T15:08:47;101597.78;;;22.91;54.97
46045;BME280;31781;54.094;13.428;2022-08-01T15:13:49;101586.37;;;22.92;53.31
46045;BME280;31781;54.094;13.428;2022-08-01T15:18:58;101600.00;;;22.94;53.45
46045;BME280;31781;54.094;13.428;2022-08-01T15:24:00;101593.06;;;22.96;54.05
46045;BME280;31781;54.094;13.428;2022-08-01T15:29:03;101596.41;;;22.98;53.72
46045;BME280;31781;54.094;13.428;2022-08-01T15:34:11;101598.34;;;23.03;53.81
46045;BME280;31781;54.094;13.428;2022-08-01T15:39:14;101610.88;;;23.05;53.69
46045;BME280;31781;54.094;13.428;2022-08-01T15:44:17;101617.81;;;23.08;53.77
46045;BME280;31781;54.094;13.428;2022-08-01T15:49:26;101612.31;;;23.13;53.53
46045;BME280;31781;54.094;13.428;2022-08-01T15:54:29;101615.41;;;23.26;52.92
46045;BME280;31781;54.094;13.428;2022-08-01T16:04:51;101610.75;;;23.47;52.29
46045;BME280;31781;54.094;13.428;2022-08-01T16:09:53;101606.59;;;23.45;52.25
46045;BME280;31781;54.094;13.428;2022-08-01T16:14:56;101615.25;;;23.53;51.68
46045;BME280;31781;54.094;13.428;2022-08-01T16:20:06;101609.44;;;23.70;50.24
46045;BME280;31781;54.094;13.428;2022-08-01T16:25:09;101606.69;;;23.90;48.13
46045;BME280;31781;54.094;13.428;2022-08-01T16:30:12;101610.84;;;24.03;47.68
46045;BME280;31781;54.094;13.428;2022-08-01T16:35:20;101618.09;;;24.09;46.89
46045;BME280;31781;54.094;13.428;2022-08-01T16:40:27;101608.34;;;24.11;47.28
46045;BME280;31781;54.094;13.428;2022-08-01T16:45:31;101618.69;;;24.16;46.09
46045;BME280;31781;54.094;13.428;2022-08-01T16:50:46;101620.91;;;24.24;46.30
46045;BME280;31781;54.094;13.428;2022-08-01T16:55:49;101623.94;;;24.33;44.09
46045;BME280;31781;54.094;13.428;2022-08-01T17:00:52;101625.63;;;24.39;42.88
46045;BME280;31781;54.094;13.428;2022-08-01T17:06:12;101627.53;;;24.48;44.11
46045;BME280;31781;54.094;13.428;2022-08-01T17:11:17;101629.47;;;24.43;42.55
46045;BME280;31781;54.094;13.428;2022-08-01T17:16:19;101642.59;;;24.37;38.49
46045;BME280;31781;54.094;13.428;2022-08-01T17:21:27;101633.13;;;24.33;37.14
46045;BME280;31781;54.094;13.428;2022-08-01T17:26:30;101640.94;;;24.31;36.94
46045;BME280;31781;54.094;13.428;2022-08-01T17:31:33;101646.47;;;24.26;34.40
46045;BME280;31781;54.094;13.428;2022-08-01T17:36:41;101654.81;;;24.21;32.39
46045;BME280;31781;54.094;13.428;2022-08-01T17:41:44;101654.53;;;24.33;35.38
46045;BME280;31781;54.094;13.428;2022-08-01T17:46:47;101651.72;;;24.58;32.96
46045;BME280;31781;54.094;13.428;2022-08-01T17:51:55;101654.22;;;24.85;33.02
46045;BME280;31781;54.094;13.428;2022-08-01T17:56:57;101657.03;;;24.59;34.31
46045;BME280;31781;54.094;13.428;2022-08-01T18:02:00;101657.88;;;24.30;32.94
46045;BME280;31781;54.094;13.428;2022-08-01T18:07:10;101656.47;;;24.02;33.50
46045;BME280;31781;54.094;13.428;2022-08-01T18:12:14;101661.69;;;23.78;35.60
46045;BME280;31781;54.094;13.428;2022-08-01T18:17:18;101656.34;;;23.51;33.68
46045;BME280;31781;54.094;13.428;2022-08-01T18:22:26;101659.03;;;23.31;34.17
46045;BME280;31781;54.094;13.428;2022-08-01T18:27:34;101652.28;;;23.12;36.58
46045;BME280;31781;54.094;13.428;2022-08-01T18:32:57;101654.09;;;22.91;34.98
46045;BME280;31781;54.094;13.428;2022-08-01T18:38:05;101661.22;;;22.72;35.01
46045;BME280;31781;54.094;13.428;2022-08-01T18:43:10;101664.37;;;22.54;37.12
46045;BME280;31781;54.094;13.428;2022-08-01T18:48:12;101666.97;;;22.33;35.86
46045;BME280;31781;54.094;13.428;2022-08-01T18:53:21;101666.00;;;22.18;36.35
46045;BME280;31781;54.094;13.428;2022-08-01T18:58:23;101679.16;;;22.01;37.55
46045;BME280;31781;54.094;13.428;2022-08-01T19:03:26;101683.94;;;21.83;36.97
46045;BME280;31781;54.094;13.428;2022-08-01T19:08:34;101697.31;;;21.65;36.86
46045;BME280;31781;54.094;13.428;2022-08-01T19:13:37;101701.00;;;21.49;38.18
46045;BME280;31781;54.094;13.428;2022-08-01T19:18:40;101712.63;;;21.29;36.95
46045;BME280;31781;54.094;13.428;2022-08-01T19:23:52;101709.28;;;21.10;37.06
46045;BME280;31781;54.094;13.428;2022-08-01T19:28:56;101710.69;;;20.91;38.80
46045;BME280;31781;54.094;13.428;2022-08-01T19:33:59;101718.44;;;20.72;38.28
46045;BME280;31781;54.094;13.428;2022-08-01T19:39:09;101723.12;;;20.55;38.68
46045;BME280;31781;54.094;13.428;2022-08-01T19:44:14;101735.88;;;20.39;40.07
46045;BME280;31781;54.094;13.428;2022-08-01T19:49:19;101742.41;;;20.22;39.11
46045;BME280;31781;54.094;13.428;2022-08-01T19:54:32;101740.47;;;20.06;39.67
46045;BME280;31781;54.094;13.428;2022-08-01T19:59:51;101743.62;;;19.98;41.33
46045;BME280;31781;54.094;13.428;2022-08-01T20:04:56;101749.22;;;19.74;41.16
46045;BME280;31781;54.094;13.428;2022-08-01T20:10:00;101758.03;;;19.60;40.99
46045;BME280;31781;54.094;13.428;2022-08-01T20:15:09;101754.09;;;19.44;41.76
46045;BME280;31781;54.094;13.428;2022-08-01T20:20:13;101764.31;;;19.32;42.79
46045;BME280;31781;54.094;13.428;2022-08-01T20:25:19;101762.91;;;19.18;43.11
46045;BME280;31781;54.094;13.428;2022-08-01T20:30:28;101770.34;;;19.06;43.77
46045;BME280;31781;54.094;13.428;2022-08-01T20:35:32;101766.72;;;18.93;44.25
46045;BME280;31781;54.094;13.428;2022-08-01T20:40:55;101774.16;;;18.81;44.94
46045;BME280;31781;54.094;13.428;2022-08-01T20:46:04;101773.31;;;18.69;45.83
46045;BME280;31781;54.094;13.428;2022-08-01T20:51:07;101782.16;;;18.60;46.07
46045;BME280;31781;54.094;13.428;2022-08-01T20:56:15;101784.84;;;18.48;47.21
46045;BME280;31781;54.094;13.428;2022-08-01T21:01:26;101789.25;;;18.37;47.19
46045;BME280;31781;54.094;13.428;2022-08-01T21:06:34;101789.00;;;18.27;47.23
46045;BME280;31781;54.094;13.428;2022-08-01T21:11:41;101782.37;;;18.17;48.21
46045;BME280;31781;54.094;13.428;2022-08-01T21:16:56;101794.78;;;18.08;48.68
46045;BME280;31781;54.094;13.428;2022-08-01T21:22:07;101792.97;;;18.02;47.68
46045;BME280;31781;54.094;13.428;2022-08-01T21:27:14;101793.75;;;17.90;47.94
46045;BME280;31781;54.094;13.428;2022-08-01T21:32:28;101796.44;;;17.79;48.30
46045;BME280;31781;54.094;13.428;2022-08-01T21:37:31;101801.66;;;17.69;48.16
46045;BME280;31781;54.094;13.428;2022-08-01T21:42:35;101810.44;;;17.59;49.15
46045;BME280;31781;54.094;13.428;2022-08-01T21:47:48;101812.00;;;17.48;49.51
46045;BME280;31781;54.094;13.428;2022-08-01T21:53:01;101815.09;;;17.40;49.05
46045;BME280;31781;54.094;13.428;2022-08-01T21:58:15;101812.63;;;17.32;49.69
46045;BME280;31781;54.094;13.428;2022-08-01T22:03:29;101801.66;;;17.26;50.12
46045;BME280;31781;54.094;13.428;2022-08-01T22:08:44;101814.66;;;17.19;50.22
46045;BME280;31781;54.094;13.428;2022-08-01T22:13:52;101829.31;;;17.13;51.22
46045;BME280;31781;54.094;13.428;2022-08-01T22:19:01;101818.38;;;17.06;52.45
46045;BME280;31781;54.094;13.428;2022-08-01T22:24:05;101819.06;;;17.01;51.78
46045;BME280;31781;54.094;13.428;2022-08-01T22:29:08;101821.88;;;16.95;53.17
46045;BME280;31781;54.094;13.428;2022-08-01T22:34:16;101822.75;;;16.89;53.32
46045;BME280;31781;54.094;13.428;2022-08-01T22:39:20;101817.94;;;16.84;52.64
46045;BME280;31781;54.094;13.428;2022-08-01T22:44:28;101823.72;;;16.76;54.04
46045;BME280;31781;54.094;13.428;2022-08-01T22:49:46;101821.62;;;16.72;53.28
46045;BME280;31781;54.094;13.428;2022-08-01T22:55:00;101829.69;;;16.67;52.86
46045;BME280;31781;54.094;13.428;2022-08-01T23:00:06;101826.41;;;16.58;53.67
46045;BME280;31781;54.094;13.428;2022-08-01T23:05:19;101823.03;;;16.49;54.58
46045;BME280;31781;54.094;13.428;2022-08-01T23:10:24;101832.16;;;16.43;53.62
46045;BME280;31781;54.094;13.428;2022-08-01T23:15:28;101827.78;;;16.36;55.13
46045;BME280;31781;54.094;13.428;2022-08-01T23:20:37;101826.97;;;16.29;55.57
46045;BME280;31781;54.094;13.428;2022-08-01T23:25:43;101818.75;;;16.22;54.42
46045;BME280;31781;54.094;13.428;2022-08-01T23:30:48;101825.12;;;16.16;55.60
46045;BME280;31781;54.094;13.428;2022-08-01T23:35:57;101830.47;;;16.11;55.67
46045;BME280;31781;54.094;13.428;2022-08-01T23:40:59;101836.59;;;16.06;54.72
46045;BME280;31781;54.094;13.428;2022-08-01T23:46:02;101822.69;;;16.01;56.03
46045;BME280;31781;54.094;13.428;2022-08-01T23:51:11;101825.22;;;15.96;56.16
46045;BME280;31781;54.094;13.428;2022-08-01T23:56:29;101825.03;;;15.98;53.94
